Details From CYUL - Montreal Pierre E Trudeau Intl
To GCGM - La Gomera
Flight Number -
Tags Generated
Created
Modified
Stats Distance 2,850 nm / 5,279 km
Max Altitude 0 ft / 0 m
Waypoints 5
Social Downloads 1
Likes 0
Share VATSIM

Download

Looking for another format? Having issues loading an existing format? Contact us
Advertisement - Login to hide

Notes

Generated

Route

CYUL RAEGN DUTSA LGM GCGM

ID Type Via Altitude Latitude Longitude Leg Dist Tot Dist Heading (true) Name
O CYUL APT - 0 ft / 0 m 45.46250˚ -73.76500˚ - 0 nm - -
RAEGN FIX - 0 ft / 0 m 45.28286˚ -68.46256˚ 223 nm 223 nm 91° / 95° -
DUTSA FIX - 0 ft / 0 m 44.84160˚ -63.41382˚ 215 nm 439 nm 95° / 99° -
LGM VOR - 0 ft / 0 m 28.02874˚ -17.21487˚ 2410 nm 2849 nm 99° / 127° LA GOMERA VOR-DME
O GCGM APT - 0 ft / 0 m 28.02859˚ -17.22214˚ 0 nm 2850 nm 269° / 269° -

Altitude Profile

Advertisement - Login to hide

Weather


0- 5 10 15 20 25 30 35+ Temperature / ° C

Clouds and Precipitation
Forecast for 2018-05-28 00:00 UTC. Updated 5 hours ago

Ground ~20,000 ft ~40,000 ft Winds

CYUL

Details ICAO CYUL (YUL)
Name Montreal Pierre E Trudeau Intl
Region Canada
Timezone America/Montreal (UTC-4.0)
Stats Elevation 117 ft / 36 m (AMSL)
Location 45.467269° -73.744028°
Runways 3
Magnetic Variation 14.292° W

METAR

Not found

TAF

TAF TAF CYUL 280239Z 2803/2824 14012KT P6SM SCT040 FM280600 16012KT P6SM BKN040 FM281000 15008KT P6SM OVC015 TEMPO 2810/2814 P6SM -SHRA FM281900 20010KT P6SM SCT025 RMK NXT FCST BY 280600Z

Decode

Departure Runways

ID Width Length Bearing (true) Bearing (mag) Surface Threshold Offset Overrun Length
06L 200 ft / 61 m 11,020 ft / 3,359 m 42.62° 56.91° Asphalt 0 ft / 0 m 0 ft / 0 m
06R 200 ft / 61 m 9,706 ft / 2,958 m 41.23° 55.52° Asphalt 0 ft / 0 m 0 ft / 0 m
10 200 ft / 61 m 6,831 ft / 2,082 m 87.45° 101.74° Asphalt 0 ft / 0 m 0 ft / 0 m
24L 200 ft / 61 m 9,706 ft / 2,958 m 221.25° 235.54° Asphalt 0 ft / 0 m 0 ft / 0 m
24R 200 ft / 61 m 11,020 ft / 3,359 m 222.64° 236.93° Asphalt 0 ft / 0 m 0 ft / 0 m
28 200 ft / 61 m 6,831 ft / 2,082 m 267.47° 281.76° Asphalt 0 ft / 0 m 0 ft / 0 m

GCGM

Details ICAO GCGM (GMZ)
Name La Gomera
Region Canary Islands
Timezone Atlantic/Canary (UTC+1.0)
Stats Elevation 715 ft / 218 m (AMSL)
Location 28.029627° -17.214603°
Runways 1
Magnetic Variation 5.306° W

METAR

Not found

TAF

TAF GCGM 280200Z 2803/2903 23005KT 9999 FEW030 TX22/2814Z TN16/2805Z PROB30 TEMPO 2812/2820 VRB11G21KT

Decode

Destination Runways

ID Width Length Bearing (true) Bearing (mag) Surface Threshold Offset Overrun Length
09 98 ft / 30 m 4,914 ft / 1,498 m 81.17° 86.48° Asphalt 0 ft / 0 m 0 ft / 0 m
27 98 ft / 30 m 4,914 ft / 1,498 m 261.18° 266.49° Asphalt 0 ft / 0 m 0 ft / 0 m